Time;durP1;ratioP1;P1;durP2;ratioP2;P2;SDS_P1;SDS_P2;PMS_P1;PMS_P2;Temp;Humidity;BMP_temperature;BMP_pressure;BME280_temperature;BME280_humidity;BME280_pressure;Samples;Min_cycle;Max_cycle;Signal;HPM_P1;HPM_P2
2021/10/09 00:01:54;;;;;;;14.23;6.38;;;;;;;9.18;100.00;102896.53;6299005;22;20044;-76
2021/10/09 00:04:55;;;;;;;12.93;5.82;;;;;;;9.18;100.00;102900.91;6298351;28;20071;-76
2021/10/09 00:07:57;;;;;;;12.23;4.93;;;;;;;9.14;100.00;102892.22;6317173;28;20415;-76
2021/10/09 00:10:59;;;;;;;15.27;6.55;;;;;;;9.11;100.00;102900.09;6315739;28;20130;-76
2021/10/09 00:14:00;;;;;;;13.55;5.43;;;;;;;9.14;100.00;102895.69;6298677;28;20045;-76
2021/10/09 00:17:03;;;;;;;10.63;5.32;;;;;;;9.07;100.00;102893.16;6298372;28;20404;-77
2021/10/09 00:20:05;;;;;;;12.85;5.95;;;;;;;9.06;100.00;102896.69;6298693;28;20117;-76
2021/10/09 00:23:07;;;;;;;11.82;5.85;;;;;;;9.00;100.00;102891.53;6298373;28;20085;-76
2021/10/09 00:26:08;;;;;;;13.05;5.72;;;;;;;8.99;100.00;102908.13;6298172;28;20048;-76
2021/10/09 00:29:10;;;;;;;10.82;5.97;;;;;;;8.94;100.00;102891.56;6297907;28;20052;-76
2021/10/09 00:32:12;;;;;;;11.93;5.60;;;;;;;8.93;100.00;102902.94;6298277;28;20040;-76
2021/10/09 00:35:14;;;;;;;10.38;5.10;;;;;;;8.91;100.00;102892.50;6297622;28;20450;-76
2021/10/09 00:38:15;;;;;;;12.10;5.40;;;;;;;8.92;100.00;102896.84;6297925;28;20048;-76
2021/10/09 00:41:17;;;;;;;13.77;5.68;;;;;;;8.96;100.00;102901.16;6297907;28;20061;-76
2021/10/09 00:44:18;;;;;;;14.77;5.93;;;;;;;8.95;100.00;102898.53;6297578;28;20135;-76
2021/10/09 00:47:23;;;;;;;14.10;5.60;;;;;;;8.89;100.00;102902.13;6297760;28;20059;-76
2021/10/09 00:50:24;;;;;;;12.68;5.88;;;;;;;8.86;100.00;102910.03;6297524;28;20397;-76
2021/10/09 00:53:29;;;;;;;14.43;5.82;;;;;;;8.88;100.00;102897.75;6297464;28;20059;-76
2021/10/09 00:56:34;;;;;;;10.68;5.78;;;;;;;8.90;100.00;102906.47;6297897;28;20049;-76
2021/10/09 00:59:38;;;;;;;15.20;6.20;;;;;;;8.88;100.00;102895.16;6297879;28;20040;-75
2021/10/09 01:02:40;;;;;;;13.50;5.68;;;;;;;8.84;100.00;102896.94;6297534;28;20060;-76
2021/10/09 01:05:42;;;;;;;9.30;5.00;;;;;;;8.81;100.00;102894.38;6297710;28;20055;-76
2021/10/09 01:08:44;;;;;;;14.63;5.55;;;;;;;8.78;100.00;102898.75;6297664;28;20484;-76
2021/10/09 01:11:45;;;;;;;15.30;5.47;;;;;;;8.74;100.00;102891.81;6297758;28;20127;-76
2021/10/09 01:14:46;;;;;;;10.93;5.45;;;;;;;8.72;100.00;102883.97;6297355;28;20055;-76
2021/10/09 01:17:49;;;;;;;15.90;5.97;;;;;;;8.73;100.00;102887.47;6297390;28;20056;-76
2021/10/09 01:20:55;;;;;;;12.27;5.88;;;;;;;8.69;100.00;102888.38;6296447;28;20484;-76
2021/10/09 01:23:57;;;;;;;10.27;4.97;;;;;;;8.67;100.00;102887.50;6297106;28;20625;-76
2021/10/09 01:26:58;;;;;;;13.18;6.20;;;;;;;8.61;100.00;102889.31;6297191;28;20056;-75
2021/10/09 01:29:59;;;;;;;11.65;5.78;;;;;;;8.58;100.00;102889.38;6297374;28;20055;-76
2021/10/09 01:33:01;;;;;;;12.88;6.20;;;;;;;8.50;100.00;102880.72;6296723;28;20056;-76
2021/10/09 01:36:04;;;;;;;17.75;5.07;;;;;;;8.46;100.00;102892.09;6296934;28;20044;-76
2021/10/09 01:39:08;;;;;;;10.25;5.53;;;;;;;8.43;100.00;102886.03;6296974;28;20048;-77
2021/10/09 01:42:09;;;;;;;16.60;5.43;;;;;;;8.36;100.00;102885.19;6296710;28;20431;-76
2021/10/09 01:45:11;;;;;;;14.88;5.90;;;;;;;8.35;100.00;102886.91;6297057;28;20048;-76
2021/10/09 01:48:13;;;;;;;12.30;5.88;;;;;;;8.34;100.00;102879.09;6296897;28;20058;-76
2021/10/09 01:51:17;;;;;;;12.10;6.20;;;;;;;8.31;100.00;102879.09;6297161;28;20419;-76
2021/10/09 01:54:18;;;;;;;12.52;4.93;;;;;;;8.25;100.00;102876.56;6296731;28;20518;-76
2021/10/09 01:57:19;;;;;;;18.83;6.13;;;;;;;8.23;100.00;102875.72;6296597;28;20048;-76
2021/10/09 02:00:21;;;;;;;13.73;5.18;;;;;;;8.20;100.00;102871.38;6297074;28;20048;-76
2021/10/09 02:03:22;;;;;;;10.98;5.90;;;;;;;8.18;100.00;102865.28;6296475;28;20045;-75
2021/10/09 02:06:25;;;;;;;12.07;6.03;;;;;;;8.13;100.00;102865.31;6296445;28;20052;-76
2021/10/09 02:09:26;;;;;;;9.93;4.75;;;;;;;8.11;100.00;102876.69;6296730;28;20048;-76
2021/10/09 02:12:29;;;;;;;12.10;5.50;;;;;;;8.07;100.00;102882.81;6296500;28;20075;-76
2021/10/09 02:15:34;;;;;;;11.18;5.00;;;;;;;8.03;100.00;102874.13;6296972;28;20045;-76
2021/10/09 02:18:44;;;;;;;19.35;5.65;;;;;;;8.00;100.00;102873.31;6296870;28;20041;-76
2021/10/09 02:25:26;;;;;;;13.68;6.20;;;;;;;7.96;100.00;102868.97;6296156;28;19920;-76
2021/10/09 02:28:27;;;;;;;13.55;6.57;;;;;;;7.90;100.00;102867.25;6296703;28;20048;-76
2021/10/09 02:31:29;;;;;;;13.00;5.65;;;;;;;7.84;100.00;102869.94;6296407;28;20407;-76
2021/10/09 02:34:30;;;;;;;12.07;5.30;;;;;;;7.77;100.00;102866.50;6300951;28;20445;-76
2021/10/09 02:37:33;;;;;;;9.77;4.65;;;;;;;7.70;100.00;102877.00;6300988;28;20045;-75
2021/10/09 02:40:35;;;;;;;11.32;5.78;;;;;;;7.61;100.00;102872.72;6300355;28;20475;-76
2021/10/09 02:43:36;;;;;;;16.88;5.63;;;;;;;7.56;100.00;102875.34;6300647;28;20519;-76
2021/10/09 02:46:37;;;;;;;8.05;5.22;;;;;;;7.51;100.00;102878.88;6300432;28;20049;-76
2021/10/09 02:49:39;;;;;;;9.52;4.85;;;;;;;7.43;100.00;102876.31;6300140;28;20411;-76
2021/10/09 02:52:42;;;;;;;9.60;4.78;;;;;;;7.39;100.00;102871.97;6300121;28;20052;-76
2021/10/09 02:55:43;;;;;;;11.02;4.93;;;;;;;7.36;100.00;102867.66;6299890;28;20056;-76
2021/10/09 02:58:44;;;;;;;14.98;5.70;;;;;;;7.34;100.00;102871.13;6299917;28;20048;-76
2021/10/09 03:01:45;;;;;;;10.75;5.30;;;;;;;7.33;100.00;102869.41;6299872;28;20522;-76
2021/10/09 03:04:47;;;;;;;11.82;5.95;;;;;;;7.33;100.00;102870.28;6299874;28;20048;-76
2021/10/09 03:07:49;;;;;;;11.32;5.50;;;;;;;7.31;100.00;102863.28;6300162;28;20045;-76
2021/10/09 03:10:51;;;;;;;7.53;4.57;;;;;;;7.28;100.00;102872.03;6299705;28;20491;-76
2021/10/09 03:13:52;;;;;;;11.15;4.90;;;;;;;7.24;100.00;102870.31;6297889;28;20040;-76
2021/10/09 03:16:55;;;;;;;13.77;5.10;;;;;;;7.23;100.00;102870.34;6299308;28;20419;-75
2021/10/09 03:19:56;;;;;;;13.07;6.47;;;;;;;7.18;100.00;102879.97;6299173;28;20040;-76
2021/10/09 03:22:58;;;;;;;12.25;5.70;;;;;;;7.16;100.00;102874.72;6299474;28;20053;-76
2021/10/09 03:26:00;;;;;;;9.40;5.72;;;;;;;7.15;100.00;102877.34;6298846;28;20048;-76
2021/10/09 03:29:01;;;;;;;13.95;6.38;;;;;;;7.13;100.00;102882.59;6299375;28;20078;-76
2021/10/09 03:32:03;;;;;;;6.80;4.10;;;;;;;7.10;100.00;102877.38;6299147;28;20048;-76
2021/10/09 03:35:05;;;;;;;12.98;5.22;;;;;;;7.12;100.00;102878.22;6298917;28;20067;-75
2021/10/09 03:38:08;;;;;;;10.85;5.57;;;;;;;7.09;100.00;102873.03;6298852;28;20052;-76
2021/10/09 03:41:11;;;;;;;13.88;5.65;;;;;;;7.08;100.00;102873.88;6298961;28;20492;-76
2021/10/09 03:44:13;;;;;;;12.90;5.00;;;;;;;7.11;100.00;102874.75;6298212;28;20052;-76
2021/10/09 03:47:20;;;;;;;13.23;5.32;;;;;;;7.14;100.00;102878.22;6298656;28;20048;-76
2021/10/09 03:50:34;;;;;;;11.90;5.05;;;;;;;7.03;100.00;102873.91;6298675;28;20475;-76
2021/10/09 03:53:36;;;;;;;13.73;5.63;;;;;;;6.99;100.00;102879.16;6298483;28;20048;-76
2021/10/09 03:56:38;;;;;;;14.88;4.95;;;;;;;6.99;100.00;102880.00;6298535;28;20510;-76
2021/10/09 03:59:39;;;;;;;13.52;4.68;;;;;;;7.00;100.00;102880.91;6298106;28;20044;-76
2021/10/09 04:02:40;;;;;;;9.15;5.20;;;;;;;7.04;100.00;102875.66;6298314;28;20056;-76
2021/10/09 04:05:42;;;;;;;15.40;4.78;;;;;;;7.04;100.00;102880.00;6297862;28;20048;-76
2021/10/09 04:08:44;;;;;;;10.30;4.90;;;;;;;7.01;100.00;102883.50;6298183;28;20514;-76
2021/10/09 04:11:46;;;;;;;12.23;5.55;;;;;;;7.01;100.00;102883.50;6298021;28;20045;-76
2021/10/09 04:14:47;;;;;;;13.50;5.18;;;;;;;7.01;100.00;102880.88;6297935;28;20059;-75
2021/10/09 04:17:48;;;;;;;9.60;4.22;;;;;;;7.01;100.00;102874.78;6297822;28;20415;-76
2021/10/09 04:20:50;;;;;;;11.55;5.47;;;;;;;7.00;100.00;102887.00;6297976;28;20056;-76
2021/10/09 04:23:52;;;;;;;8.82;4.05;;;;;;;6.98;100.00;102885.25;6297488;28;20048;-76
2021/10/09 04:26:54;;;;;;;15.75;4.65;;;;;;;6.94;100.00;102881.78;6297915;28;20052;-76
2021/10/09 04:29:55;;;;;;;10.18;4.30;;;;;;;6.82;100.00;102884.47;6297527;28;20047;-76
2021/10/09 04:32:57;;;;;;;11.75;5.07;;;;;;;6.86;100.00;102887.06;6288921;28;20052;-76
2021/10/09 04:35:59;;;;;;;10.85;4.80;;;;;;;6.90;100.00;102884.41;6274077;28;20416;-77
2021/10/09 04:39:01;;;;;;;10.13;4.45;;;;;;;6.92;100.00;102887.91;6272541;28;20064;-76
2021/10/09 04:42:03;;;;;;;11.65;4.95;;;;;;;6.90;100.00;102881.78;6272634;28;20479;-76
2021/10/09 04:45:05;;;;;;;13.68;6.35;;;;;;;6.89;100.00;102891.38;6284329;28;20045;-76
2021/10/09 04:48:07;;;;;;;10.98;5.22;;;;;;;6.82;100.00;102889.69;6285314;28;20415;-76
2021/10/09 04:51:08;;;;;;;8.82;4.68;;;;;;;6.77;100.00;102888.84;6272381;28;20045;-76
2021/10/09 04:54:11;;;;;;;11.05;4.88;;;;;;;6.72;100.00;102891.47;6272033;28;20059;-76
2021/10/09 04:57:12;;;;;;;11.38;5.00;;;;;;;6.75;100.00;102893.19;6271741;28;20064;-76
2021/10/09 05:00:14;;;;;;;16.05;4.90;;;;;;;6.79;100.00;102897.53;6272331;28;20056;-76
2021/10/09 05:03:16;;;;;;;12.57;4.90;;;;;;;6.79;100.00;102893.16;6272017;28;20420;-76
2021/10/09 05:06:17;;;;;;;9.80;5.13;;;;;;;6.74;100.00;102897.53;6271837;28;20049;-76
2021/10/09 05:09:20;;;;;;;10.55;5.22;;;;;;;6.71;100.00;102899.28;6272004;28;20041;-76
2021/10/09 05:12:21;;;;;;;12.15;4.72;;;;;;;6.71;100.00;102897.53;6271800;28;20056;-76
2021/10/09 05:15:23;;;;;;;13.65;4.55;;;;;;;6.69;100.00;102901.91;6271757;28;20519;-76
2021/10/09 05:18:24;;;;;;;7.13;4.18;;;;;;;6.65;100.00;102896.69;6271892;28;20411;-76
2021/10/09 05:21:25;;;;;;;13.43;4.85;;;;;;;6.67;100.00;102893.19;6271752;28;20041;-76
2021/10/09 05:24:28;;;;;;;9.90;4.50;;;;;;;6.62;100.00;102900.16;6288349;28;20056;-76
2021/10/09 05:27:30;;;;;;;8.35;4.47;;;;;;;6.55;100.00;102896.72;6296438;28;20051;-76
2021/10/09 05:30:33;;;;;;;9.07;4.57;;;;;;;6.51;100.00;102892.38;6296345;28;20052;-75
2021/10/09 05:33:38;;;;;;;8.70;4.55;;;;;;;6.54;100.00;102900.22;6296206;28;20420;-76
2021/10/09 05:36:40;;;;;;;13.88;5.25;;;;;;;6.55;100.00;102901.94;6296382;28;20048;-75
2021/10/09 05:39:42;;;;;;;9.48;4.63;;;;;;;6.52;100.00;102901.06;6296404;28;20127;-76
2021/10/09 05:42:44;;;;;;;11.15;4.13;;;;;;;6.48;100.00;102902.81;6296421;28;20052;-76
2021/10/09 05:45:45;;;;;;;9.20;4.18;;;;;;;6.48;100.00;102905.41;6295979;28;20044;-76
2021/10/09 05:48:47;;;;;;;12.70;5.25;;;;;;;6.47;100.00;102903.69;6296585;28;20052;-75
2021/10/09 05:51:55;;;;;;;10.98;4.20;;;;;;;6.48;100.00;102908.03;6296094;28;20045;-76
2021/10/09 05:55:08;;;;;;;8.18;4.45;;;;;;;6.43;100.00;102908.91;6296272;28;20059;-76
2021/10/09 05:58:13;;;;;;;9.50;4.75;;;;;;;6.39;100.00;102913.28;6296245;28;20503;-76
2021/10/09 06:44:56;;;;;;;9.73;4.47;;;;;;;6.40;100.00;102933.28;6275102;28;20053;-76
2021/10/09 06:48:06;;;;;;;8.77;4.05;;;;;;;6.46;100.00;102937.66;6275333;28;20049;-76
2021/10/09 06:59:26;;;;;;;10.75;5.15;;;;;;;6.49;100.00;102937.63;6275159;28;20496;-76
2021/10/09 07:01:16;;;;;;;10.73;5.43;;;;;;;6.56;100.00;102942.84;6274924;28;20056;-76
2021/10/09 07:04:18;;;;;;;7.40;4.70;;;;;;;6.61;100.00;102948.94;6274267;28;20045;-76
2021/10/09 07:07:20;;;;;;;8.40;3.33;;;;;;;6.68;100.00;102947.22;6275080;28;20069;-76
2021/10/09 07:10:21;;;;;;;14.77;5.40;;;;;;;6.71;100.00;102949.78;6274759;28;20048;-76
2021/10/09 07:13:22;;;;;;;10.00;5.15;;;;;;;6.72;100.00;102948.03;6274394;28;20049;-76
2021/10/09 07:16:25;;;;;;;9.73;5.57;;;;;;;6.78;100.00;102950.66;6296518;28;20049;-76
2021/10/09 07:19:26;;;;;;;11.00;4.97;;;;;;;6.81;100.00;102948.03;6285631;28;20052;-76
2021/10/09 07:22:28;;;;;;;8.30;4.47;;;;;;;6.84;100.00;102961.09;6284252;28;20052;-76
2021/10/09 07:25:29;;;;;;;11.30;5.13;;;;;;;6.86;100.00;102955.00;6285986;28;20411;-76
2021/10/09 07:28:30;;;;;;;12.68;5.32;;;;;;;6.91;100.00;102961.97;6286687;28;20048;-76
2021/10/09 07:31:33;;;;;;;10.63;4.95;;;;;;;6.98;100.00;102955.84;6292936;28;20044;-75
2021/10/09 07:34:35;;;;;;;12.18;4.93;;;;;;;7.00;100.00;102956.72;6283656;28;20415;-76
2021/10/09 07:37:36;;;;;;;11.20;4.78;;;;;;;7.01;100.00;102959.31;6295725;28;20071;-76
2021/10/09 07:40:38;;;;;;;9.32;5.50;;;;;;;7.04;100.00;102967.16;6298958;28;20514;-76
2021/10/09 07:43:39;;;;;;;15.60;5.18;;;;;;;7.03;100.00;102962.78;6298520;28;20044;-76
2021/10/09 07:46:42;;;;;;;10.48;5.05;;;;;;;7.12;100.00;102970.59;6298679;28;20048;-76
2021/10/09 07:49:43;;;;;;;10.98;5.28;;;;;;;7.16;100.00;102974.06;6298594;28;20051;-76
2021/10/09 07:52:45;;;;;;;11.45;5.32;;;;;;;7.14;100.00;102970.59;6298323;28;20055;-75
2021/10/09 07:55:47;;;;;;;10.50;4.30;;;;;;;7.18;100.00;102974.09;6298450;28;20055;-76
2021/10/09 07:58:48;;;;;;;12.57;4.82;;;;;;;7.26;100.00;102977.53;6298653;28;20407;-76
2021/10/09 08:01:51;;;;;;;8.98;4.38;;;;;;;7.26;100.00;102972.28;6298400;28;20044;-76
2021/10/09 08:04:53;;;;;;;8.82;4.10;;;;;;;7.28;100.00;102966.19;6297402;28;20105;-76
2021/10/09 08:07:54;;;;;;;13.15;5.05;;;;;;;7.33;100.00;102963.56;6298347;28;20048;-76
2021/10/09 08:10:56;;;;;;;9.80;4.75;;;;;;;7.33;100.00;102964.44;6298011;28;20040;-76
2021/10/09 08:13:57;;;;;;;11.27;4.40;;;;;;;7.40;100.00;102972.25;6298385;28;20075;-77
2021/10/09 08:17:00;;;;;;;11.15;4.28;;;;;;;7.45;100.00;102978.31;6290088;28;20051;-76
2021/10/09 08:20:01;;;;;;;8.82;4.55;;;;;;;7.49;100.00;102969.56;6291046;28;20052;-76
2021/10/09 08:23:05;;;;;;;13.43;5.40;;;;;;;7.53;100.00;102969.56;6290814;28;20056;-76
2021/10/09 08:36:19;;;;;;;10.70;4.15;;;;;;;7.78;100.00;102966.81;6290766;28;20052;-76
2021/10/09 08:39:21;;;;;;;13.38;5.53;;;;;;;7.83;100.00;102973.75;6297807;28;20094;-76
2021/10/09 08:42:22;;;;;;;13.82;4.75;;;;;;;7.87;100.00;102975.50;6297293;28;20055;-76
2021/10/09 08:45:23;;;;;;;12.43;5.25;;;;;;;7.92;100.00;102975.47;6293118;28;20048;-76
2021/10/09 08:48:28;;;;;;;10.30;5.13;;;;;;;7.98;100.00;102978.03;6289168;28;20055;-76
2021/10/09 08:51:30;;;;;;;11.88;5.47;;;;;;;8.07;100.00;102980.59;6292836;28;20592;-76
2021/10/09 08:54:35;;;;;;;10.07;5.07;;;;;;;8.10;100.00;102975.34;6296640;28;20053;-76
2021/10/09 08:57:36;;;;;;;9.57;4.75;;;;;;;8.22;100.00;102973.50;6297036;28;20048;-76
2021/10/09 09:00:48;;;;;;;13.10;4.72;;;;;;;8.22;100.00;102968.25;6297362;28;20051;-76
2021/10/09 09:04:10;;;;;;;11.50;6.22;;;;;;;8.29;100.00;102970.81;6296333;28;20044;-76
2021/10/09 09:07:28;;;;;;;11.48;4.95;;;;;;;8.34;100.00;102969.03;6296721;28;20059;-76
2021/10/09 09:34:13;;;;;;;10.23;5.03;;;;;;;8.92;100.00;102967.66;6219273;28;20046;-76
2021/10/09 09:37:40;;;;;;;10.48;5.10;;;;;;;8.97;100.00;102964.97;6296678;28;20049;-76
2021/10/09 09:40:43;;;;;;;13.93;6.45;;;;;;;9.02;100.00;102971.03;6296035;28;20071;-76
2021/10/09 09:43:44;;;;;;;11.40;5.47;;;;;;;9.09;100.00;102955.22;6296442;28;20072;-76
2021/10/09 09:47:02;;;;;;;13.88;5.15;;;;;;;9.15;100.00;102956.91;6296114;28;20045;-76
2021/10/09 09:50:04;;;;;;;14.57;6.32;;;;;;;9.21;100.00;102955.94;6290122;28;20270;-76
2021/10/09 09:53:08;;;;;;;13.00;5.45;;;;;;;9.33;100.00;102948.78;6296485;28;20053;-76
2021/10/09 09:56:13;;;;;;;14.57;6.75;;;;;;;9.43;100.00;102946.06;6295120;28;20423;-76
2021/10/09 09:59:14;;;;;;;10.88;5.80;;;;;;;9.52;100.00;102941.53;6298899;28;20061;-76
2021/10/09 10:02:19;;;;;;;11.00;5.47;;;;;;;9.60;100.00;102942.31;6295960;28;20055;-76
2021/10/09 10:05:24;;;;;;;12.90;5.68;;;;;;;9.72;100.00;102941.28;6296217;28;20059;-76
2021/10/09 10:08:27;;;;;;;14.73;5.50;;;;;;;9.77;100.00;102936.81;6288105;28;20514;-76
2021/10/09 10:11:29;;;;;;;11.52;5.70;;;;;;;9.94;100.00;102940.94;6278294;28;20061;-76
2021/10/09 10:14:33;;;;;;;8.90;4.90;;;;;;;10.06;100.00;102935.50;6296956;28;20045;-75
2021/10/09 10:17:39;;;;;;;14.13;6.50;;;;;;;10.15;100.00;102937.97;6279907;28;20588;-76
2021/10/09 10:20:49;;;;;;;10.43;5.00;;;;;;;10.25;98.60;102942.22;6289088;28;20048;-78
2021/10/09 10:23:51;;;;;;;;;;;;;;;10.35;98.40;102945.56;6280057;28;20052;-80
2021/10/09 10:26:53;;;;;;;19.42;5.35;;;;;;;10.46;98.23;102941.00;6272837;28;19932;-79
2021/10/09 10:30:20;;;;;;;10.52;5.72;;;;;;;10.62;97.25;102938.94;6294431;28;20151;-78
2021/10/09 10:33:32;;;;;;;12.20;5.20;;;;;;;10.72;96.34;102937.00;6295399;28;20045;-75
2021/10/09 10:36:39;;;;;;;14.23;6.05;;;;;;;10.85;95.49;102939.38;6270482;28;20145;-76
2021/10/09 10:39:41;;;;;;;13.45;4.97;;;;;;;10.97;93.30;102940.91;6280437;28;20055;-75
2021/10/09 10:42:43;;;;;;;12.45;5.32;;;;;;;11.12;92.86;102934.47;6285216;28;20045;-76
2021/10/09 10:45:44;;;;;;;13.95;5.20;;;;;;;11.29;94.01;102937.63;6296404;28;20048;-76
2021/10/09 10:48:47;;;;;;;13.75;5.47;;;;;;;11.43;93.40;102938.19;6296060;28;20415;-76
2021/10/09 10:51:57;;;;;;;11.93;5.05;;;;;;;11.59;90.30;102938.72;6295257;28;20041;-76
2021/10/09 10:55:05;;;;;;;14.68;5.13;;;;;;;11.71;90.01;102927.03;6298787;28;20063;-76
2021/10/09 10:58:19;;;;;;;11.75;4.60;;;;;;;11.93;88.40;102932.69;6299641;28;20058;-76
2021/10/09 11:01:22;;;;;;;8.43;4.85;;;;;;;12.12;84.98;102923.44;6289626;28;20113;-76
2021/10/09 11:04:34;;;;;;;11.68;4.75;;;;;;;12.32;84.13;102924.72;6288797;28;20053;-76
2021/10/09 11:07:37;;;;;;;10.90;5.50;;;;;;;12.56;83.63;102923.19;6297793;28;20064;-76
2021/10/09 11:10:47;;;;;;;9.02;4.65;;;;;;;12.78;83.52;102927.00;6298706;28;20045;-76
2021/10/09 11:13:49;;;;;;;7.75;4.53;;;;;;;13.05;82.92;102927.13;6299092;28;20048;-75
2021/10/09 11:16:59;;;;;;;12.82;4.40;;;;;;;13.31;79.80;102926.41;6298733;28;20143;-76
2021/10/09 11:20:00;;;;;;;9.25;4.50;;;;;;;13.49;77.06;102928.50;6299304;28;20044;-76
2021/10/09 11:23:03;;;;;;;10.88;5.07;;;;;;;13.64;77.61;102916.56;6299228;28;20415;-75
2021/10/09 11:26:06;;;;;;;8.02;4.82;;;;;;;13.86;74.99;102914.97;6299139;28;20056;-76
2021/10/09 11:29:09;;;;;;;9.68;4.53;;;;;;;14.01;72.49;102902.16;6299343;28;20048;-76
2021/10/09 11:32:11;;;;;;;8.15;3.83;;;;;;;14.24;74.23;102906.69;6298949;28;20059;-76
2021/10/09 11:35:14;;;;;;;7.53;3.63;;;;;;;14.41;70.16;102899.03;6298880;28;20048;-76
2021/10/09 11:38:21;;;;;;;9.38;4.43;;;;;;;14.55;71.89;102903.88;6299105;28;20049;-75
2021/10/09 11:41:25;;;;;;;11.00;4.40;;;;;;;14.77;68.62;102901.31;6298720;28;20044;-76
2021/10/09 11:44:29;;;;;;;9.55;4.35;;;;;;;14.93;69.59;102895.38;6298532;28;20052;-76
2021/10/09 11:54:32;;;;;;;8.75;4.13;;;;;;;15.30;66.94;102895.78;6298409;28;20056;-76
2021/10/09 11:57:35;;;;;;;6.50;3.60;;;;;;;15.30;62.28;102887.84;6298426;28;20044;-76
2021/10/09 12:00:40;;;;;;;6.68;3.42;;;;;;;15.39;64.39;102895.41;6298513;28;20138;-76
2021/10/09 12:03:42;;;;;;;10.05;3.85;;;;;;;15.50;64.38;102887.06;6317988;22;20049;-73
2021/10/09 12:06:45;;;;;;;7.45;3.15;;;;;;;15.60;64.03;102891.94;6295953;28;20423;-75
2021/10/09 12:09:57;;;;;;;5.18;3.60;;;;;;;15.69;61.98;102874.81;6298063;28;20060;-76
2021/10/09 12:13:05;;;;;;;9.55;3.58;;;;;;;15.66;60.25;102877.59;6297653;28;20040;-75
2021/10/09 12:16:09;;;;;;;10.63;3.70;;;;;;;15.68;57.72;102863.38;6297546;28;20059;-75
2021/10/09 12:19:12;;;;;;;6.63;3.00;;;;;;;15.81;60.60;102868.16;6297974;28;20057;-75
2021/10/09 12:22:14;;;;;;;6.75;3.42;;;;;;;15.82;59.77;102869.88;6297630;28;20129;-75
2021/10/09 12:25:22;;;;;;;7.13;3.30;;;;;;;15.90;59.76;102866.00;6297542;28;20044;-75
2021/10/09 12:28:25;;;;;;;5.80;2.95;;;;;;;16.00;58.43;102858.50;6297208;28;20049;-75
2021/10/09 12:31:27;;;;;;;9.57;4.00;;;;;;;15.94;57.19;102861.41;6297883;28;20051;-75
2021/10/09 12:34:34;;;;;;;7.18;3.03;;;;;;;15.92;58.50;102856.16;6297161;28;20052;-75
2021/10/09 12:37:37;;;;;;;4.68;2.72;;;;;;;15.96;55.94;102847.16;6297652;28;20059;-76
2021/10/09 12:40:40;;;;;;;6.13;3.10;;;;;;;16.05;57.73;102845.06;6297430;28;20052;-76
2021/10/09 12:43:43;;;;;;;6.75;3.53;;;;;;;16.12;57.98;102842.03;6296865;28;20056;-76
2021/10/09 12:46:45;;;;;;;5.30;1.92;;;;;;;16.27;57.73;102835.25;6297313;28;20521;-76
2021/10/09 12:49:46;;;;;;;5.13;2.25;;;;;;;16.42;57.06;102833.69;6296963;28;20496;-76
2021/10/09 12:52:48;;;;;;;4.07;2.42;;;;;;;16.53;55.57;102831.41;6296916;28;20056;-77
2021/10/09 12:55:49;;;;;;;5.63;2.35;;;;;;;16.67;55.49;102833.47;6296786;28;20048;-76
2021/10/09 12:58:52;;;;;;;4.18;2.33;;;;;;;16.70;54.62;102825.34;6297219;28;20052;-77
2021/10/09 13:01:53;;;;;;;6.57;2.47;;;;;;;16.90;53.88;102822.66;6296898;28;20041;-76
2021/10/09 13:04:55;;;;;;;15.18;7.63;;;;;;;17.01;53.93;102819.50;6296698;28;20063;-76
2021/10/09 13:07:59;;;;;;;3.45;2.47;;;;;;;17.08;53.19;102809.41;6296661;28;20483;-76
2021/10/09 13:11:01;;;;;;;6.57;2.67;;;;;;;17.11;52.73;102809.28;6297197;28;20483;-78
2021/10/09 13:14:03;;;;;;;4.95;2.40;;;;;;;17.14;52.64;102809.16;6295987;28;20048;-76
2021/10/09 13:17:05;;;;;;;5.20;2.63;;;;;;;17.13;52.60;102812.75;6296230;28;20437;-76
2021/10/09 13:20:07;;;;;;;5.60;2.30;;;;;;;17.22;51.49;102813.16;6297105;28;20048;-76
2021/10/09 13:23:09;;;;;;;7.55;2.20;;;;;;;17.34;51.98;102806.38;6296268;28;20044;-76
2021/10/09 13:26:10;;;;;;;6.75;2.50;;;;;;;17.33;52.05;102807.31;6295191;28;20049;-78
2021/10/09 13:29:13;;;;;;;4.72;2.67;;;;;;;17.37;49.78;102810.69;6297678;28;20051;-78
2021/10/09 13:32:14;;;;;;;4.43;2.45;;;;;;;17.29;50.94;102811.06;6297890;28;20052;-78
2021/10/09 13:35:15;;;;;;;5.82;2.33;;;;;;;17.29;49.94;102797.75;6295974;28;20052;-76
2021/10/09 13:38:17;;;;;;;4.40;2.08;;;;;;;17.30;49.86;102803.94;6297727;28;20048;-79
2021/10/09 13:41:19;;;;;;;4.80;2.28;;;;;;;17.31;50.28;102806.53;6296123;28;20115;-76
2021/10/09 13:44:21;;;;;;;4.15;2.40;;;;;;;17.33;50.29;102809.13;6296003;28;20069;-76
2021/10/09 13:47:23;;;;;;;4.57;2.28;;;;;;;17.22;49.99;102814.97;6297022;28;20059;-78
2021/10/09 13:50:25;;;;;;;4.25;2.33;;;;;;;17.23;49.75;102812.22;6296253;28;20075;-76
2021/10/09 13:53:27;;;;;;;5.10;2.53;;;;;;;17.25;50.56;102798.84;6296433;28;20044;-78
2021/10/09 13:56:29;;;;;;;7.85;2.45;;;;;;;17.05;48.79;102804.28;6296029;28;20045;-76
2021/10/09 13:59:36;;;;;;;3.13;2.05;;;;;;;16.94;47.67;102803.00;6296085;28;20056;-77
2021/10/09 14:02:37;;;;;;;5.20;2.20;;;;;;;16.73;47.50;102793.38;6296074;28;20094;-76
2021/10/09 14:05:38;;;;;;;6.35;2.90;;;;;;;16.71;50.07;102793.41;6295748;28;20491;-76
2021/10/09 14:08:40;;;;;;;4.97;1.98;;;;;;;16.39;53.67;102789.56;6296089;28;20678;-76
2021/10/09 14:11:41;;;;;;;8.93;2.42;;;;;;;16.29;52.45;102793.56;6295913;28;20052;-76
2021/10/09 14:14:44;;;;;;;6.85;2.20;;;;;;;16.14;54.05;102787.16;6295065;28;20055;-75
2021/10/09 14:17:45;;;;;;;4.85;2.42;;;;;;;16.11;51.29;102789.94;6295947;28;20059;-75
2021/10/09 14:20:47;;;;;;;5.35;2.63;;;;;;;16.05;52.55;102794.66;6295713;28;20430;-76
2021/10/09 14:23:48;;;;;;;4.93;2.13;;;;;;;15.84;53.72;102789.34;6295471;28;20055;-76
2021/10/09 14:26:49;;;;;;;5.40;2.30;;;;;;;15.65;53.66;102783.09;6295802;28;20060;-75
2021/10/09 14:29:52;;;;;;;6.20;2.35;;;;;;;15.42;54.19;102786.69;6300461;28;20056;-75
2021/10/09 14:32:53;;;;;;;3.58;1.88;;;;;;;15.24;54.44;102777.69;6300143;28;20438;-76
2021/10/09 14:35:55;;;;;;;5.57;2.97;;;;;;;15.14;55.47;102779.00;6300209;28;20044;-76
2021/10/09 14:38:57;;;;;;;4.70;2.20;;;;;;;15.01;56.04;102780.41;6300152;28;20056;-75
2021/10/09 14:41:58;;;;;;;5.63;2.00;;;;;;;14.92;55.69;102782.47;6300194;28;20052;-76
2021/10/09 14:45:01;;;;;;;7.43;3.00;;;;;;;14.82;56.41;102778.47;6299831;28;20510;-76
2021/10/09 14:48:07;;;;;;;4.55;2.22;;;;;;;14.69;58.11;102778.06;6300274;28;20076;-76
2021/10/09 14:51:16;;;;;;;4.65;2.75;;;;;;;14.54;58.97;102780.44;6299816;28;20407;-75
2021/10/09 14:54:45;;;;;;;7.45;2.83;;;;;;;14.42;60.25;102768.50;6299822;28;20748;-76
2021/10/09 15:01:47;;;;;;;3.73;2.30;;;;;;;14.27;61.27;102767.28;6299814;28;20441;-75
2021/10/09 15:18:10;;;;;;;3.20;1.65;;;;;;;14.08;61.92;102760.91;6299423;28;20049;-75
2021/10/09 15:21:11;;;;;;;5.10;2.33;;;;;;;14.01;61.96;102762.91;6299493;28;20044;-75
2021/10/09 15:24:12;;;;;;;5.72;2.95;;;;;;;13.95;63.81;102764.00;6298881;28;20052;-75
2021/10/09 15:27:15;;;;;;;4.22;2.08;;;;;;;13.89;64.46;102764.19;6299328;28;20101;-74
2021/10/09 15:30:16;;;;;;;5.03;2.65;;;;;;;13.83;62.43;102763.56;6299034;28;20412;-76
2021/10/09 15:33:19;;;;;;;5.75;2.65;;;;;;;13.83;63.02;102761.78;6299002;28;20041;-76
2021/10/09 15:36:20;;;;;;;4.20;2.38;;;;;;;13.81;64.21;102754.84;6298853;28;20121;-76
2021/10/09 15:39:22;;;;;;;4.72;1.92;;;;;;;13.72;64.76;102766.59;6298137;28;20052;-77
2021/10/09 15:42:23;;;;;;;4.32;2.22;;;;;;;13.61;65.21;102761.66;6298825;28;20056;-76
2021/10/09 15:45:24;;;;;;;4.63;2.05;;;;;;;13.51;67.08;102769.94;6298628;28;20052;-76
2021/10/09 15:48:27;;;;;;;3.55;1.92;;;;;;;13.38;68.40;102767.69;6298583;28;20071;-76
2021/10/09 15:51:28;;;;;;;5.90;3.03;;;;;;;13.28;69.74;102768.91;6298478;28;20044;-76
2021/10/09 15:54:30;;;;;;;5.40;1.85;;;;;;;13.19;70.14;102763.91;6298157;28;20052;-76
2021/10/09 15:57:31;;;;;;;3.60;1.60;;;;;;;13.07;70.77;102759.00;6298204;28;20071;-76
2021/10/09 16:00:32;;;;;;;4.38;2.03;;;;;;;12.98;71.19;102762.78;6298575;28;20045;-76